Time;durP1;ratioP1;P1;durP2;ratioP2;P2;SDS_P1;SDS_P2;PMS_P1;PMS_P2;Temp;Humidity;BMP_temperature;BMP_pressure;BME280_temperature;BME280_humidity;BME280_pressure;Samples;Min_cycle;Max_cycle;Signal;HPM_P1;HPM_P2
2021/11/08 00:01:38;;;;;;;15.87;10.77;;;;;;;7.97;77.22;99237.20;1790493;77;21486;-56
2021/11/08 00:04:05;;;;;;;16.43;10.77;;;;;;;7.98;77.12;99228.22;1791763;77;21324;-56
2021/11/08 00:06:32;;;;;;;19.20;13.28;;;;;;;7.99;77.02;99220.59;1794749;77;21025;-55
2021/11/08 00:09:00;;;;;;;18.37;13.72;;;;;;;7.99;76.93;99220.59;1789749;77;21050;-56
2021/11/08 00:11:28;;;;;;;15.80;13.10;;;;;;;7.98;76.86;99224.20;1791699;77;21181;-56
2021/11/08 00:13:55;;;;;;;15.73;12.80;;;;;;;7.96;76.79;99212.67;1794851;77;21723;-56
2021/11/08 00:16:43;;;;;;;15.47;13.67;;;;;;;7.96;76.78;99207.31;1793350;77;21086;-55
2021/11/08 00:19:24;;;;;;;16.13;12.80;;;;;;;7.95;76.75;99202.42;1786354;77;21534;-56
2021/11/08 00:21:35;;;;;;;13.55;11.97;;;;;;;7.94;76.75;99203.36;1795689;77;21014;-56
2021/11/08 00:24:02;;;;;;;18.10;12.40;;;;;;;7.93;76.75;99196.73;1795790;77;21061;-56
2021/11/08 00:26:28;;;;;;;16.63;13.07;;;;;;;7.92;76.76;99198.53;1793587;77;21139;-56
2021/11/08 00:28:56;;;;;;;13.77;11.43;;;;;;;7.91;76.78;99194.61;1785021;77;21077;-55
2021/11/08 00:31:23;;;;;;;18.33;12.40;;;;;;;7.91;76.79;99187.91;1793714;77;21196;-56
2021/11/08 00:33:51;;;;;;;17.33;10.67;;;;;;;7.89;76.73;99190.66;1795685;77;21065;-55
2021/11/08 00:36:17;;;;;;;12.23;10.47;;;;;;;7.90;76.70;99202.25;1792559;77;21045;-56
2021/11/08 00:38:44;;;;;;;13.47;9.30;;;;;;;7.90;76.68;99204.45;1787381;77;22093;-56
2021/11/08 00:41:10;;;;;;;15.73;11.07;;;;;;;7.90;76.70;99204.92;1800705;77;21021;-56
2021/11/08 00:43:37;;;;;;;16.13;12.27;;;;;;;7.92;76.70;99203.02;1790698;77;21004;-56
2021/11/08 00:46:06;;;;;;;12.90;10.63;;;;;;;7.93;76.68;99199.41;1793294;77;22200;-56
2021/11/08 00:48:35;;;;;;;16.17;11.53;;;;;;;7.93;76.65;99200.75;1790918;77;23132;-55
2021/11/08 00:51:02;;;;;;;18.57;12.03;;;;;;;7.93;76.60;99206.98;1790423;77;21657;-56
2021/11/08 00:53:28;;;;;;;18.23;12.17;;;;;;;7.93;76.58;99208.31;1794286;77;21439;-56
2021/11/08 00:55:56;;;;;;;18.13;12.50;;;;;;;7.92;76.58;99208.38;1790776;77;21613;-55
2021/11/08 00:58:31;;;;;;;15.55;11.40;;;;;;;7.91;76.55;99216.89;1787930;77;21099;-56
2021/11/08 01:00:53;;;;;;;14.43;11.23;;;;;;;7.92;76.55;99212.41;1797195;77;21452;-56
2021/11/08 01:03:21;;;;;;;13.20;9.73;;;;;;;7.92;76.53;99209.25;1790631;77;21126;-56
2021/11/08 01:05:48;;;;;;;13.88;10.10;;;;;;;7.93;76.54;99208.78;1786253;77;21516;-56
2021/11/08 01:08:15;;;;;;;18.67;12.83;;;;;;;7.94;76.54;99207.84;1745617;80;21456;-55
2021/11/08 01:10:42;;;;;;;18.23;12.55;;;;;;;7.95;76.52;99209.13;1749470;79;20993;-55
2021/11/08 01:13:09;;;;;;;17.07;11.28;;;;;;;7.95;76.45;99197.53;1751044;79;20973;-56
2021/11/08 01:15:35;;;;;;;22.37;12.83;;;;;;;7.95;76.39;99190.36;1750250;79;21006;-56
2021/11/08 01:18:02;;;;;;;17.10;12.00;;;;;;;7.93;76.32;99194.91;1746545;79;21012;-56
2021/11/08 01:20:33;;;;;;;17.23;11.50;;;;;;;7.93;76.30;99195.39;1752797;79;21543;-56
2021/11/08 01:23:03;;;;;;;15.50;11.30;;;;;;;7.93;76.29;99201.62;1749834;79;20949;-56
2021/11/08 01:25:33;;;;;;;16.85;11.70;;;;;;;7.93;76.25;99202.08;1750284;79;21432;-56
2021/11/08 01:28:02;;;;;;;16.07;11.67;;;;;;;7.93;76.26;99206.10;1747735;79;21044;-55
2021/11/08 01:30:28;;;;;;;22.00;12.47;;;;;;;7.93;76.33;99200.28;1749424;79;21084;-56
2021/11/08 01:35:37;;;;;;;14.83;12.00;;;;;;;7.95;76.17;99182.33;1749706;79;20960;-56
2021/11/08 01:38:09;;;;;;;14.18;10.98;;;;;;;7.95;76.14;99185.00;1751814;79;21056;-56
2021/11/08 01:40:34;;;;;;;13.13;10.35;;;;;;;7.92;76.09;99194.52;1744327;79;22491;-56
2021/11/08 01:43:01;;;;;;;13.60;9.67;;;;;;;7.90;76.02;99191.06;1746889;79;21611;-56
2021/11/08 01:45:27;;;;;;;14.13;10.18;;;;;;;7.89;76.02;99193.80;1749735;79;21063;-55
2021/11/08 01:47:53;;;;;;;15.50;10.97;;;;;;;7.89;76.02;99195.14;1746313;79;21143;-56
2021/11/08 01:50:20;;;;;;;12.33;10.73;;;;;;;7.88;76.04;99202.31;1744626;79;21052;-56
2021/11/08 01:52:47;;;;;;;14.73;11.10;;;;;;;7.89;76.03;99203.19;1726885;81;21082;-56
2021/11/08 01:55:14;;;;;;;17.23;11.78;;;;;;;7.88;76.02;99200.97;1751438;79;21040;-56
2021/11/08 01:57:41;;;;;;;18.13;11.73;;;;;;;7.88;75.90;99196.95;1735416;80;21048;-56
2021/11/08 02:00:08;;;;;;;17.13;13.47;;;;;;;7.86;75.88;99192.13;1747319;79;21156;-56
2021/11/08 02:02:36;;;;;;;16.63;12.17;;;;;;;7.83;75.84;99197.61;1750829;79;21455;-56
2021/11/08 02:05:04;;;;;;;18.00;12.60;;;;;;;7.78;75.85;99188.06;1749231;79;21534;-56
2021/11/08 02:07:31;;;;;;;20.43;10.83;;;;;;;7.76;75.86;99183.23;1746242;79;20938;-56
2021/11/08 02:09:58;;;;;;;16.67;11.87;;;;;;;7.75;75.87;99177.00;1746939;79;21429;-56
2021/11/08 02:12:24;;;;;;;14.63;11.15;;;;;;;7.73;75.89;99187.41;1748839;79;21086;-56
2021/11/08 02:14:51;;;;;;;18.27;12.23;;;;;;;7.71;75.90;99199.53;1731145;80;21036;-56
2021/11/08 02:17:17;;;;;;;19.90;12.60;;;;;;;7.69;75.99;99196.52;1733756;79;21503;-56
2021/11/08 02:19:43;;;;;;;16.42;12.58;;;;;;;7.67;75.92;99187.20;1731386;79;22585;-56
2021/11/08 02:22:10;;;;;;;14.70;12.27;;;;;;;7.64;75.89;99190.51;1742239;79;21466;-56
2021/11/08 02:24:40;;;;;;;15.27;11.63;;;;;;;7.59;75.91;99196.05;1734965;79;21009;-56
2021/11/08 02:27:06;;;;;;;13.73;11.17;;;;;;;7.54;75.89;99191.39;1735017;79;21068;-56
2021/11/08 02:29:32;;;;;;;15.67;11.90;;;;;;;7.48;75.96;99187.19;1736823;79;22524;-56
2021/11/08 02:32:00;;;;;;;13.80;10.50;;;;;;;7.44;76.01;99189.58;1739677;79;21087;-56
2021/11/08 02:34:26;;;;;;;16.73;11.40;;;;;;;7.43;76.10;99200.36;1735752;79;21119;-56
2021/11/08 02:36:52;;;;;;;13.27;10.93;;;;;;;7.40;76.12;99197.84;1739241;79;21155;-56
2021/11/08 02:39:42;;;;;;;16.70;11.67;;;;;;;7.38;76.22;99195.69;1734517;79;21080;-55
2021/11/08 02:41:49;;;;;;;18.67;12.85;;;;;;;7.37;76.26;99197.49;1729786;79;21539;-55
2021/11/08 02:44:15;;;;;;;16.97;11.80;;;;;;;7.35;76.25;99195.34;1736131;79;21056;-55
2021/11/08 02:46:42;;;;;;;17.00;12.73;;;;;;;7.33;76.22;99188.30;1742190;79;20957;-55
2021/11/08 02:49:12;;;;;;;18.93;12.30;;;;;;;7.30;76.25;99192.48;1754532;79;21029;-55
2021/11/08 02:51:42;;;;;;;14.37;10.47;;;;;;;7.25;76.24;99194.47;1737995;79;21358;-55
2021/11/08 02:54:13;;;;;;;13.67;10.10;;;;;;;7.22;76.29;99195.49;1732128;79;21188;-55
2021/11/08 02:56:34;;;;;;;16.30;9.37;;;;;;;7.19;76.32;99194.27;1737050;79;21049;-55
2021/11/08 02:59:02;;;;;;;11.40;9.43;;;;;;;7.16;76.37;99203.77;1744744;80;21073;-55
2021/11/08 03:01:28;;;;;;;13.07;10.17;;;;;;;7.14;76.41;99205.19;1735787;79;21088;-55
2021/11/08 03:03:56;;;;;;;16.23;10.97;;;;;;;7.13;76.47;99194.08;1736010;79;21070;-56
2021/11/08 03:06:34;;;;;;;14.70;11.83;;;;;;;7.11;76.44;99186.58;1741609;79;21128;-55
2021/11/08 03:09:09;;;;;;;13.17;10.30;;;;;;;7.11;76.47;99203.11;1750875;79;20996;-55
2021/11/08 03:11:36;;;;;;;17.20;12.03;;;;;;;7.07;76.46;99192.11;1744941;79;21091;-55
2021/11/08 03:14:07;;;;;;;13.30;10.07;;;;;;;7.03;76.47;99187.38;1746686;79;21084;-55
2021/11/08 03:16:47;;;;;;;11.23;9.10;;;;;;;7.00;76.50;99195.99;1751739;79;21043;-55
2021/11/08 03:19:18;;;;;;;11.83;8.93;;;;;;;6.97;76.53;99200.16;1751549;79;21120;-56
2021/11/08 03:21:43;;;;;;;15.57;10.07;;;;;;;6.94;76.55;99205.63;1738159;79;21080;-55
2021/11/08 03:24:14;;;;;;;14.27;9.00;;;;;;;6.89;76.66;99199.11;1752162;79;22278;-56
2021/11/08 03:26:45;;;;;;;17.47;10.83;;;;;;;6.89;76.73;99201.78;1769912;78;21025;-55
2021/11/08 03:29:06;;;;;;;15.10;10.83;;;;;;;6.88;76.79;99202.75;1733914;80;21073;-55
2021/11/08 03:31:35;;;;;;;15.80;10.03;;;;;;;6.87;76.87;99201.47;1734817;80;21294;-55
2021/11/08 03:34:01;;;;;;;13.57;10.27;;;;;;;6.88;76.87;99194.73;1727250;78;21086;-55
2021/11/08 03:36:29;;;;;;;14.37;11.03;;;;;;;6.87;76.83;99190.30;1736574;80;21069;-55
2021/11/08 03:38:56;;;;;;;13.80;10.03;;;;;;;6.84;76.79;99190.42;1768377;78;21103;-55
2021/11/08 03:41:22;;;;;;;13.27;9.93;;;;;;;6.82;76.80;99191.81;1766543;78;21103;-55
2021/11/08 03:43:50;;;;;;;14.43;9.77;;;;;;;6.81;76.81;99189.20;1735174;80;21125;-56
2021/11/08 03:46:16;;;;;;;10.90;7.47;;;;;;;6.81;76.80;99182.05;1742794;79;21056;-55
2021/11/08 03:48:44;;;;;;;13.87;8.97;;;;;;;6.81;76.80;99189.20;1748675;79;21079;-56
2021/11/08 03:51:11;;;;;;;10.97;9.00;;;;;;;6.81;76.75;99182.52;1747774;79;21041;-55
2021/11/08 03:53:38;;;;;;;12.57;9.33;;;;;;;6.80;76.78;99181.64;1753121;79;20960;-55
2021/11/08 03:56:06;;;;;;;13.53;9.67;;;;;;;6.80;76.79;99181.64;1736604;80;21096;-56
2021/11/08 03:58:33;;;;;;;10.50;8.87;;;;;;;6.81;76.72;99179.84;1768163;78;20968;-55
2021/11/08 04:01:00;;;;;;;10.57;8.33;;;;;;;6.80;76.70;99186.16;1768152;78;20980;-55
2021/11/08 04:03:26;;;;;;;12.13;9.23;;;;;;;6.77;76.68;99183.13;1752586;79;20952;-55
2021/11/08 04:05:53;;;;;;;12.63;8.23;;;;;;;6.76;76.63;99184.06;1751148;79;20909;-55
2021/11/08 04:08:21;;;;;;;10.77;8.03;;;;;;;6.73;76.63;99186.84;1757627;79;20945;-56
2021/11/08 04:10:52;;;;;;;12.30;7.23;;;;;;;6.74;76.62;99190.39;1760798;79;21337;-55
2021/11/08 04:13:28;;;;;;;13.27;8.23;;;;;;;6.72;76.66;99179.76;1763565;79;21538;-55
2021/11/08 04:15:53;;;;;;;13.47;8.07;;;;;;;6.73;76.69;99180.16;1740915;79;20949;-55
2021/11/08 04:18:23;;;;;;;9.77;7.67;;;;;;;6.74;76.71;99182.38;1744833;79;20958;-55
2021/11/08 04:20:51;;;;;;;14.70;8.73;;;;;;;6.71;76.67;99180.72;1741975;79;22462;-55
2021/11/08 04:23:18;;;;;;;17.53;9.67;;;;;;;6.70;76.65;99178.98;1737827;79;21032;-56
2021/11/08 04:25:45;;;;;;;9.37;8.43;;;;;;;6.67;76.66;99179.09;1736284;80;21113;-55
2021/11/08 04:28:11;;;;;;;12.43;9.90;;;;;;;6.65;76.66;99183.63;1735306;79;21076;-56
2021/11/08 04:30:41;;;;;;;15.50;8.83;;;;;;;6.62;76.69;99182.44;1740450;79;21115;-55
2021/11/08 04:35:53;;;;;;;9.80;7.33;;;;;;;6.58;76.71;99196.84;1731954;79;21582;-55
2021/11/08 04:38:39;;;;;;;8.83;6.27;;;;;;;6.56;76.80;99200.05;1739661;79;21355;-55
2021/11/08 04:41:02;;;;;;;8.60;7.67;;;;;;;6.57;76.91;99207.60;1731189;79;21427;-55
2021/11/08 04:43:35;;;;;;;9.07;6.83;;;;;;;6.58;76.90;99210.69;1728073;79;21780;-55
2021/11/08 04:46:14;;;;;;;8.23;7.53;;;;;;;6.60;76.90;99207.48;1734863;79;21080;-55
2021/11/08 04:48:49;;;;;;;10.43;8.20;;;;;;;6.59;76.91;99206.61;1744600;79;21104;-56
2021/11/08 05:23:07;;;;;;;;;;;;;;;6.45;77.08;99227.23;1739192;79;21076;-57
2021/11/08 05:30:40;;;;;;;11.53;7.27;;;;;;;6.38;77.11;99247.09;1736374;80;21080;-54
2021/11/08 05:33:06;;;;;;;11.50;6.47;;;;;;;6.36;77.14;99249.45;1745331;79;21510;-55
2021/11/08 05:35:33;;;;;;;7.30;6.37;;;;;;;6.35;77.21;99253.92;1739546;79;21620;-55
2021/11/08 05:38:05;;;;;;;7.10;6.37;;;;;;;6.35;77.30;99250.38;1742728;79;21097;-55
2021/11/08 05:40:30;;;;;;;9.13;6.80;;;;;;;6.38;77.28;99244.92;1749129;79;21453;-55
2021/11/08 05:42:56;;;;;;;8.50;6.47;;;;;;;6.40;77.34;99245.24;1737459;79;21147;-55
2021/11/08 05:45:23;;;;;;;9.07;7.67;;;;;;;6.43;77.27;99252.28;1733215;79;21388;-55
2021/11/08 05:47:50;;;;;;;10.83;8.17;;;;;;;6.44;77.23;99268.27;1740205;79;21095;-55
2021/11/08 05:50:18;;;;;;;9.90;8.33;;;;;;;6.44;77.24;99273.62;1747878;79;22902;-54
2021/11/08 05:52:48;;;;;;;11.73;7.73;;;;;;;6.45;77.23;99270.02;1738325;79;21008;-54
2021/11/08 05:55:15;;;;;;;11.37;8.57;;;;;;;6.48;77.16;99280.16;1738787;79;21048;-54
2021/11/08 05:57:45;;;;;;;10.27;7.50;;;;;;;6.47;77.13;99275.27;1736377;79;21050;-54
2021/11/08 06:49:50;;;;;;;6.62;5.95;;;;;;;7.16;76.25;99306.34;1723878;80;20399;-54
2021/11/08 06:52:17;;;;;;;7.50;6.10;;;;;;;7.19;76.08;99302.22;1736285;80;21045;-55
2021/11/08 06:54:45;;;;;;;10.23;6.37;;;;;;;7.23;76.04;99296.75;1760447;78;21716;-54
2021/11/08 06:57:14;;;;;;;10.40;6.53;;;;;;;7.28;76.03;99299.63;1737849;80;22482;-54
2021/11/08 06:59:41;;;;;;;10.53;6.50;;;;;;;7.35;75.89;99298.89;1766058;79;21103;-54
2021/11/08 07:02:08;;;;;;;10.43;6.50;;;;;;;7.39;75.75;99304.06;1765357;78;21338;-54
2021/11/08 07:04:34;;;;;;;8.50;7.53;;;;;;;7.43;75.64;99302.98;1741618;80;20944;-54
2021/11/08 07:07:01;;;;;;;9.13;7.93;;;;;;;7.45;75.48;99309.15;1741875;80;20969;-54
2021/11/08 07:09:27;;;;;;;7.40;6.23;;;;;;;7.48;75.39;99305.48;1768164;78;21715;-54
2021/11/08 07:11:54;;;;;;;7.27;6.47;;;;;;;7.51;75.35;99308.88;1739760;80;20997;-54
2021/11/08 07:14:20;;;;;;;6.90;4.80;;;;;;;7.54;75.34;99307.89;1751446;79;20962;-53
2021/11/08 07:16:47;;;;;;;19.63;7.30;;;;;;;7.60;75.22;99297.77;1754461;79;20981;-53
2021/11/08 07:19:14;;;;;;;9.03;6.10;;;;;;;7.64;75.19;99303.88;1751355;79;21091;-54
2021/11/08 07:21:41;;;;;;;7.37;6.67;;;;;;;7.70;75.05;99300.05;1746177;79;21097;-54
2021/11/08 07:24:07;;;;;;;7.67;6.87;;;;;;;7.72;74.85;99311.11;1749756;79;21072;-55
2021/11/08 07:26:34;;;;;;;8.47;6.40;;;;;;;7.73;74.69;99310.18;1767040;78;21066;-54
2021/11/08 07:29:00;;;;;;;9.85;6.60;;;;;;;7.73;74.60;99311.52;1743775;80;21111;-54
2021/11/08 07:31:27;;;;;;;7.53;5.73;;;;;;;7.74;74.68;99316.41;1739468;80;21097;-54
2021/11/08 07:33:53;;;;;;;6.50;4.87;;;;;;;7.77;74.64;99318.47;1746713;79;21116;-54
2021/11/08 07:36:19;;;;;;;5.33;4.65;;;;;;;7.80;74.54;99324.17;1749247;79;21052;-54
2021/11/08 07:38:45;;;;;;;6.70;5.55;;;;;;;7.82;74.45;99329.00;1745433;79;21075;-54
2021/11/08 07:41:12;;;;;;;9.20;7.43;;;;;;;7.82;74.25;99333.02;1751659;79;21056;-57
2021/11/08 07:43:39;;;;;;;8.18;6.30;;;;;;;7.82;74.22;99339.25;1752502;79;21106;-54
2021/11/08 07:46:07;;;;;;;8.73;7.03;;;;;;;7.82;74.15;99330.34;1767927;78;21130;-54
2021/11/08 07:48:39;;;;;;;8.50;7.60;;;;;;;7.80;73.94;99344.27;1770052;78;21047;-55
2021/11/08 07:51:02;;;;;;;6.97;6.30;;;;;;;7.76;73.94;99348.88;1737941;80;21064;-54
2021/11/08 07:53:28;;;;;;;6.20;5.40;;;;;;;7.77;73.99;99352.42;1748128;80;22619;-54
2021/11/08 07:55:55;;;;;;;5.97;5.37;;;;;;;7.77;73.96;99358.66;1764054;78;21693;-54
2021/11/08 07:58:21;;;;;;;5.77;5.17;;;;;;;7.79;74.02;99354.58;1735434;80;22271;-54
2021/11/08 08:00:48;;;;;;;8.90;6.00;;;;;;;7.81;74.09;99357.60;1762078;78;21486;-55
2021/11/08 08:03:16;;;;;;;6.65;5.30;;;;;;;7.84;74.17;99344.05;1732571;80;21112;-55
2021/11/08 08:05:42;;;;;;;6.05;5.20;;;;;;;7.89;74.06;99353.25;1767733;78;21532;-54
2021/11/08 08:08:08;;;;;;;7.17;5.87;;;;;;;7.93;73.98;99349.48;1740059;79;21088;-55
2021/11/08 08:10:35;;;;;;;7.10;5.08;;;;;;;7.97;74.04;99356.46;1733125;79;21092;-56
2021/11/08 08:13:01;;;;;;;4.15;3.72;;;;;;;8.05;73.95;99364.16;1752727;79;21068;-54
2021/11/08 08:15:28;;;;;;;5.65;4.95;;;;;;;8.11;73.90;99362.08;1737991;79;21087;-54
2021/11/08 08:17:56;;;;;;;5.08;4.67;;;;;;;8.21;73.82;99367.44;1734411;79;21139;-55
2021/11/08 08:20:23;;;;;;;7.33;4.80;;;;;;;8.28;73.61;99370.23;1739844;79;21061;-54
2021/11/08 08:22:50;;;;;;;8.58;5.45;;;;;;;8.33;73.43;99373.64;1740859;79;21093;-54
2021/11/08 08:25:16;;;;;;;6.72;4.40;;;;;;;8.39;73.38;99368.92;1737182;79;21049;-55
2021/11/08 08:27:42;;;;;;;4.60;4.17;;;;;;;8.41;73.12;99374.63;1738830;79;21039;-54
2021/11/08 08:30:09;;;;;;;5.78;4.08;;;;;;;8.43;73.15;99365.14;1733662;79;21107;-55
2021/11/08 08:32:35;;;;;;;6.45;3.55;;;;;;;8.45;73.01;99366.82;1742973;79;21068;-55
2021/11/08 08:35:02;;;;;;;5.25;3.90;;;;;;;8.52;72.99;99367.41;1737413;79;21024;-54
2021/11/08 08:37:30;;;;;;;4.35;3.50;;;;;;;8.60;72.89;99368.80;1735955;79;21095;-55
2021/11/08 08:39:57;;;;;;;5.90;4.40;;;;;;;8.72;72.77;99371.39;1736940;79;21112;-54
2021/11/08 08:42:24;;;;;;;5.58;4.30;;;;;;;8.83;72.49;99377.61;1736517;79;21505;-54
2021/11/08 08:44:53;;;;;;;5.75;4.28;;;;;;;8.91;72.33;99378.11;1738066;79;21085;-55
2021/11/08 08:47:20;;;;;;;7.83;4.75;;;;;;;8.94;71.85;99380.62;1737364;79;21118;-54
2021/11/08 08:49:48;;;;;;;4.85;4.35;;;;;;;8.92;71.48;99375.83;1738355;79;21081;-54
2021/11/08 08:52:15;;;;;;;4.95;4.20;;;;;;;8.89;71.30;99378.65;1732134;80;21067;-54
2021/11/08 08:54:41;;;;;;;3.27;2.98;;;;;;;8.85;71.33;99395.35;1744192;79;21048;-54
2021/11/08 08:57:09;;;;;;;3.40;3.12;;;;;;;8.85;71.28;99390.45;1739841;79;21092;-54
2021/11/08 08:59:35;;;;;;;4.08;3.08;;;;;;;8.84;71.11;99387.41;1739804;79;21462;-54
2021/11/08 09:02:02;;;;;;;4.22;3.87;;;;;;;8.83;71.07;99385.19;1740128;79;21550;-55
2021/11/08 09:04:29;;;;;;;4.78;4.33;;;;;;;8.85;71.17;99385.96;1736258;79;21064;-54
2021/11/08 09:06:56;;;;;;;6.53;5.67;;;;;;;8.88;71.15;99393.88;1733697;79;21066;-55
2021/11/08 09:09:24;;;;;;;7.20;4.60;;;;;;;8.89;71.11;99402.80;1754649;79;20882;-54
2021/11/08 09:11:52;;;;;;;4.33;3.65;;;;;;;8.89;71.10;99398.78;1746022;79;21076;-55
2021/11/08 09:14:18;;;;;;;4.70;4.28;;;;;;;8.90;70.94;99392.47;1740730;80;21130;-54
2021/11/08 09:16:45;;;;;;;6.25;4.45;;;;;;;8.91;70.88;99395.09;1727631;80;21147;-54
2021/11/08 09:19:11;;;;;;;4.90;3.58;;;;;;;8.94;70.88;99394.92;1734601;80;21072;-53
2021/11/08 09:21:37;;;;;;;7.53;4.35;;;;;;;9.01;70.91;99389.69;1757760;79;21098;-57
2021/11/08 09:24:05;;;;;;;5.30;4.80;;;;;;;9.04;70.56;99392.20;1751523;79;22473;-54
2021/11/08 09:26:33;;;;;;;4.75;3.50;;;;;;;9.09;70.54;99383.48;1750640;79;21072;-53
2021/11/08 09:29:02;;;;;;;9.25;5.30;;;;;;;9.14;70.39;99379.22;1750858;79;20992;-55
2021/11/08 09:31:29;;;;;;;3.92;3.52;;;;;;;9.19;70.34;99377.64;1748352;79;21126;-55
2021/11/08 09:34:03;;;;;;;6.58;3.65;;;;;;;9.23;70.00;99382.80;1748056;79;21047;-54
2021/11/08 09:36:26;;;;;;;3.77;2.90;;;;;;;9.28;69.68;99379.88;1747990;79;21573;-54
2021/11/08 09:38:59;;;;;;;3.83;3.42;;;;;;;9.31;69.49;99374.37;1749235;79;21734;-55
2021/11/08 09:41:24;;;;;;;3.10;2.80;;;;;;;9.36;69.39;99376.34;1744956;79;21067;-55
2021/11/08 09:43:52;;;;;;;4.70;3.15;;;;;;;9.42;69.40;99373.38;1743328;79;21120;-55
2021/11/08 09:46:18;;;;;;;10.40;3.45;;;;;;;9.48;69.20;99373.94;1767401;78;21508;-54
2021/11/08 09:48:44;;;;;;;5.53;3.30;;;;;;;9.54;69.06;99379.47;1764742;78;21090;-55
2021/11/08 09:51:13;;;;;;;3.62;3.08;;;;;;;9.58;68.67;99383.75;1768541;78;20878;-54
2021/11/08 09:53:41;;;;;;;6.47;2.98;;;;;;;9.59;68.61;99385.97;1741029;80;21538;-55
2021/11/08 09:56:08;;;;;;;3.50;2.95;;;;;;;9.62;68.37;99389.36;1765647;78;20960;-54
2021/11/08 09:58:34;;;;;;;3.90;3.30;;;;;;;9.67;68.15;99394.05;1740579;80;21444;-55
2021/11/08 10:01:07;;;;;;;3.40;2.42;;;;;;;9.72;68.09;99392.45;1764520;78;21358;-55
2021/11/08 10:03:34;;;;;;;5.05;2.75;;;;;;;9.80;68.04;99393.81;1741220;80;21027;-55
2021/11/08 10:06:01;;;;;;;3.77;2.20;;;;;;;9.87;67.53;99393.89;1747743;79;20989;-55
2021/11/08 10:08:32;;;;;;;2.92;2.42;;;;;;;9.99;67.25;99399.13;1750384;79;20948;-56
2021/11/08 10:11:05;;;;;;;4.05;2.45;;;;;;;10.09;66.80;99394.14;1748577;79;20926;-55
2021/11/08 10:13:31;;;;;;;2.20;1.60;;;;;;;10.17;66.19;99395.52;1742920;79;21841;-56
2021/11/08 10:16:04;;;;;;;3.98;2.42;;;;;;;10.19;65.66;99390.06;1740522;79;20890;-54
2021/11/08 10:18:32;;;;;;;2.00;1.20;;;;;;;10.18;65.10;99395.05;1744535;79;21357;-55
2021/11/08 10:21:11;;;;;;;4.15;1.37;;;;;;;10.14;64.14;99403.70;1737845;79;21061;-56
2021/11/08 10:23:41;;;;;;;2.62;1.10;;;;;;;10.07;62.91;99396.91;1738621;79;21416;-55
2021/11/08 10:26:13;;;;;;;2.67;1.00;;;;;;;10.03;62.60;99399.84;1738574;79;21109;-54
2021/11/08 10:28:39;;;;;;;5.35;1.67;;;;;;;10.02;62.84;99404.36;1737286;79;21383;-55
2021/11/08 10:31:12;;;;;;;4.35;1.65;;;;;;;10.04;62.83;99400.22;1741134;79;21015;-55
2021/11/08 10:33:40;;;;;;;2.92;1.25;;;;;;;10.05;62.73;99412.24;1738893;79;21052;-54
2021/11/08 10:36:15;;;;;;;1.77;0.90;;;;;;;10.08;62.89;99417.48;1740542;79;21072;-55
2021/11/08 10:38:44;;;;;;;2.15;0.98;;;;;;;10.12;62.31;99424.42;1739383;79;21875;-55
2021/11/08 10:41:21;;;;;;;2.55;0.80;;;;;;;10.14;61.19;99423.00;1739199;79;21124;-54
2021/11/08 10:43:53;;;;;;;1.00;0.70;;;;;;;10.12;60.37;99413.66;1754611;79;21362;-54
2021/11/08 10:46:23;;;;;;;1.05;0.90;;;;;;;10.10;60.46;99414.72;1737951;79;21053;-55
2021/11/08 10:48:56;;;;;;;3.47;0.80;;;;;;;10.09;59.80;99407.12;1735486;79;21064;-55
2021/11/08 10:51:24;;;;;;;2.17;1.27;;;;;;;10.06;59.34;99390.26;1734449;79;22267;-55
2021/11/08 10:53:58;;;;;;;1.27;0.60;;;;;;;10.04;59.23;99390.33;1737115;79;21128;-55
2021/11/08 10:56:44;;;;;;;4.42;0.68;;;;;;;10.04;58.73;99384.08;1737022;79;21060;-56
2021/11/08 10:59:20;;;;;;;2.22;0.90;;;;;;;10.00;58.32;99380.70;1737891;79;21025;-56
2021/11/08 11:01:51;;;;;;;1.45;0.80;;;;;;;9.97;58.30;99378.63;1731325;79;21330;-54
2021/11/08 11:04:30;;;;;;;2.30;0.70;;;;;;;9.95;58.43;99381.42;1735469;79;23051;-54
2021/11/08 11:06:56;;;;;;;2.62;0.78;;;;;;;9.92;58.12;99374.85;1724965;79;21087;-56
2021/11/08 11:09:29;;;;;;;1.98;1.07;;;;;;;9.88;58.10;99381.32;1736807;79;21128;-55
2021/11/08 11:12:18;;;;;;;3.70;1.07;;;;;;;9.86;58.25;99383.23;1737571;79;21605;-54
2021/11/08 11:14:50;;;;;;;2.15;0.98;;;;;;;9.84;58.30;99378.41;1738146;79;21674;-55
2021/11/08 11:17:29;;;;;;;1.95;0.90;;;;;;;9.83;58.37;99388.77;1739975;79;21125;-55
2021/11/08 11:23:11;;;;;;;2.00;1.00;;;;;;;9.85;58.76;99397.16;1844010;76;22284;-56
2021/11/08 11:25:37;;;;;;;2.42;1.20;;;;;;;9.79;58.64;99408.66;1803813;77;21038;-56
2021/11/08 11:28:06;;;;;;;4.10;1.07;;;;;;;9.75;58.76;99410.66;1805860;77;22419;-56
2021/11/08 11:30:39;;;;;;;1.47;0.90;;;;;;;9.73;59.02;99414.36;1802508;77;21032;-56
2021/11/08 11:33:15;;;;;;;2.75;0.80;;;;;;;9.71;59.17;99405.02;1790262;77;21040;-55
2021/11/08 11:35:48;;;;;;;1.30;0.85;;;;;;;9.70;59.32;99405.97;1781806;78;21041;-56
2021/11/08 11:38:21;;;;;;;4.15;0.80;;;;;;;9.68;59.22;99402.98;1784601;78;21283;-56
2021/11/08 11:40:58;;;;;;;1.45;0.90;;;;;;;9.65;59.22;99391.91;1784073;77;21202;-56
2021/11/08 11:43:32;;;;;;;4.65;1.10;;;;;;;9.63;59.34;99393.78;1786306;78;21372;-56
2021/11/08 11:45:59;;;;;;;3.40;0.88;;;;;;;9.61;59.62;99388.95;1789817;78;20985;-55
2021/11/08 11:48:30;;;;;;;3.47;0.90;;;;;;;9.59;59.70;99388.66;1787172;78;21139;-56
2021/11/08 11:50:57;;;;;;;1.47;0.90;;;;;;;9.56;59.85;99400.42;1785169;78;21123;-55
2021/11/08 11:53:24;;;;;;;2.80;0.93;;;;;;;9.55;59.97;99391.09;1786877;78;21208;-55
2021/11/08 11:55:51;;;;;;;3.08;0.95;;;;;;;9.56;60.16;99401.77;1751993;80;20918;-56
2021/11/08 11:58:19;;;;;;;3.85;0.90;;;;;;;9.57;60.08;99393.23;1735723;80;21092;-56
2021/11/08 12:00:47;;;;;;;1.80;0.85;;;;;;;9.57;60.09;99392.76;1738181;80;21159;-55
2021/11/08 12:03:14;;;;;;;2.42;0.90;;;;;;;9.57;60.02;99390.07;1737697;80;21088;-56
2021/11/08 12:05:44;;;;;;;1.92;0.80;;;;;;;9.56;60.19;99393.70;1737981;79;22239;-56
2021/11/08 12:08:09;;;;;;;1.50;0.75;;;;;;;9.56;60.26;99411.16;1740035;80;20982;-56
2021/11/08 12:10:48;;;;;;;2.70;0.80;;;;;;;9.58;60.25;99423.19;1739160;80;21065;-56
2021/11/08 12:13:19;;;;;;;2.65;0.80;;;;;;;9.58;60.19;99420.50;1736294;80;21559;-56
2021/11/08 12:15:46;;;;;;;3.00;1.02;;;;;;;9.59;59.98;99403.44;1738932;80;21426;-56
2021/11/08 12:18:16;;;;;;;2.95;0.93;;;;;;;9.59;59.89;99411.50;1736552;80;21400;-57
2021/11/08 12:20:51;;;;;;;2.22;0.90;;;;;;;9.58;59.78;99417.34;1740698;80;21121;-57
2021/11/08 12:23:22;;;;;;;3.47;0.80;;;;;;;9.59;59.73;99420.44;1739273;80;21752;-57
2021/11/08 12:25:50;;;;;;;1.90;0.80;;;;;;;9.61;59.46;99414.98;1735120;80;21085;-57
2021/11/08 12:28:26;;;;;;;2.50;0.70;;;;;;;9.62;59.38;99419.39;1735924;80;21123;-57
2021/11/08 12:31:02;;;;;;;3.00;1.40;;;;;;;9.64;59.20;99429.13;1740292;80;21090;-57
2021/11/08 12:33:34;;;;;;;4.50;2.58;;;;;;;9.63;58.99;99429.20;1736730;80;21087;-57
2021/11/08 12:36:13;;;;;;;5.53;1.52;;;;;;;9.62;58.95;99432.35;1740555;80;20934;-57
2021/11/08 12:39:04;;;;;;;4.92;1.12;;;;;;;9.62;59.18;99431.01;1738643;80;21021;-57
2021/11/08 12:41:46;;;;;;;2.75;0.90;;;;;;;9.64;59.32;99431.81;1740511;80;20970;-57
2021/11/08 12:44:08;;;;;;;3.75;0.85;;;;;;;9.65;59.27;99424.63;1739754;80;21113;-57
2021/11/08 12:46:44;;;;;;;3.83;1.00;;;;;;;9.63;59.23;99417.97;1737424;80;20999;-57
2021/11/08 12:49:19;;;;;;;1.45;0.70;;;;;;;9.65;59.33;99434.90;1735983;80;20917;-57
2021/11/08 12:52:07;;;;;;;3.47;0.80;;;;;;;9.67;59.17;99430.80;1735496;80;20907;-57
2021/11/08 12:54:55;;;;;;;2.27;0.90;;;;;;;9.68;59.25;99441.48;1735939;80;21000;-57
2021/11/08 12:57:24;;;;;;;2.42;1.10;;;;;;;9.69;59.18;99433.81;1739611;80;22706;-57
2021/11/08 12:59:59;;;;;;;2.47;1.05;;;;;;;9.67;59.05;99437.05;1736158;80;20914;-57
2021/11/08 13:02:39;;;;;;;2.42;0.88;;;;;;;9.65;59.04;99438.93;1737133;80;20931;-57
2021/11/08 13:05:10;;;;;;;2.62;0.80;;;;;;;9.65;58.96;99444.30;1738314;80;20997;-57
2021/11/08 13:07:42;;;;;;;2.60;0.90;;;;;;;9.65;58.92;99448.34;1739624;80;22413;-57
2021/11/08 13:10:29;;;;;;;2.95;0.80;;;;;;;9.65;58.95;99452.37;1740487;80;21255;-57
2021/11/08 13:12:56;;;;;;;4.30;0.90;;;;;;;9.63;58.83;99449.34;1740640;80;20954;-57
2021/11/08 13:15:29;;;;;;;2.55;0.85;;;;;;;9.61;58.90;99450.76;1739846;80;20883;-57
2021/11/08 13:18:03;;;;;;;2.22;0.70;;;;;;;9.60;59.06;99457.11;1740504;80;20921;-57
2021/11/08 13:20:36;;;;;;;1.95;0.78;;;;;;;9.58;59.04;99464.84;1738021;80;21164;-57